»·PEaware :: N301PR KCRQ-KWHP

N301PR :: KCRQ-KWHP

FLIGHT INFORMATION

Flight Status: Arrived
Operator: Privately registered:
United States
More flights under this callsign
Pilot: Ruslan D. (35389)
Aircraft: BEECH AIRCRAFT BARON
(BE58)
More flights by this aircraft type
Origin: KCRQ McClellan-Palomar
United States
Destination: KWHP Whiteman
United States
More flights between these airports :: More routes between these airports
Route: OCN V23 POPPR SMO125 SMO SMO317 CANOG
File this flight plan on PilotEdge
Remarks: TEC route SANP15
Altitude:
(Current/Filed)
6,000ft
Speed:
(Current/Filed)
180kts
Departed: 17-Sep-21 01:09 PM
Arrived: 17-Sep-21 01:48 PM
Distance/Time
Traveled:
88nm/0:39
Distance/Time
To Go:
Arrived

Flight Plot

Page will automatically refresh every two minutes.


Map Options




Map Legend


Flown Route
Filed Route
Departure Airport
Arrival Airport
Navaid (VOR, NDB)
Fix

Horizontal Profiles

Position Reports

Time Latitude Longitude Heading Altitude Ground
Speed
17-Sep-21 12:50 33.128167 -117.273942 348 303ft 0kts
17-Sep-21 12:51 33.128167 -117.273942 348 303ft 0kts
17-Sep-21 12:52 33.128167 -117.273942 348 303ft 0kts
17-Sep-21 12:53 33.128167 -117.273942 348 303ft 0kts
17-Sep-21 12:54 33.128167 -117.273942 348 303ft 0kts
17-Sep-21 12:55 33.128167 -117.273942 348 303ft 0kts
17-Sep-21 12:56 33.128167 -117.273942 348 303ft 0kts
17-Sep-21 12:57 33.128167 -117.273942 348 303ft 0kts
17-Sep-21 12:58 33.128167 -117.273942 348 303ft 0kts
17-Sep-21 12:59 33.128167 -117.273942 348 303ft 0kts
17-Sep-21 13:00 33.128167 -117.273942 348 303ft 0kts
17-Sep-21 13:01 33.128167 -117.273942 348 303ft 0kts
17-Sep-21 13:02 33.128167 -117.273942 348 303ft 0kts
17-Sep-21 13:03 33.128167 -117.273942 348 303ft 0kts
17-Sep-21 13:04 33.128167 -117.273942 348 303ft 0kts
17-Sep-21 13:05 33.128167 -117.273942 348 303ft 0kts
17-Sep-21 13:06 33.128423 -117.273874 61 303ft 7kts
17-Sep-21 13:07 33.128707 -117.272780 24 301ft 2kts
17-Sep-21 13:08 33.128049 -117.281842 258 370ft 98kts
17-Sep-21 13:09 33.122144 -117.323697 259 1333ft 144kts
17-Sep-21 13:10 33.117120 -117.374829 261 2281ft 159kts
17-Sep-21 13:11 33.147251 -117.408306 330 3260ft 163kts
17-Sep-21 13:12 33.189982 -117.424538 4 4244ft 163kts
17-Sep-21 13:13 33.234626 -117.420240 341 5223ft 159kts
17-Sep-21 13:14 33.268926 -117.452002 315 6006ft 168kts
17-Sep-21 13:15 33.306630 -117.494905 314 6005ft 197kts
17-Sep-21 13:16 33.346265 -117.540948 314 6003ft 200kts
17-Sep-21 13:17 33.386983 -117.588474 314 6003ft 207kts
17-Sep-21 13:18 33.428394 -117.636883 314 6002ft 208kts
17-Sep-21 13:19 33.469927 -117.685510 314 6001ft 209kts
17-Sep-21 13:20 33.510891 -117.733575 314 6001ft 204kts
17-Sep-21 13:21 33.551369 -117.781122 313 6002ft 204kts
17-Sep-21 13:22 33.587090 -117.833080 301 6002ft 202kts
17-Sep-21 13:23 33.618717 -117.889132 301 6002ft 202kts
17-Sep-21 13:24 33.650285 -117.945168 301 6002ft 202kts
17-Sep-21 13:25 33.681818 -118.001220 301 5993ft 203kts
17-Sep-21 13:26 33.713396 -118.057435 301 5993ft 203kts
17-Sep-21 13:27 33.744863 -118.113542 301 5993ft 203kts
17-Sep-21 13:28 33.776275 -118.169752 302 6003ft 202kts
17-Sep-21 13:29 33.807735 -118.225879 302 6003ft 202kts
17-Sep-21 13:30 33.839176 -118.282118 303 6002ft 203kts
17-Sep-21 13:31 33.881369 -118.327219 319 6003ft 204kts
17-Sep-21 13:32 33.925031 -118.371030 319 6003ft 204kts
17-Sep-21 13:33 33.968482 -118.414722 319 6012ft 204kts
17-Sep-21 13:34 34.012508 -118.457786 329 6012ft 204kts
17-Sep-21 13:35 34.062389 -118.490314 332 6013ft 204kts
17-Sep-21 13:36 34.112604 -118.522642 332 6011ft 204kts
17-Sep-21 13:37 34.162629 -118.554899 332 5996ft 205kts
17-Sep-21 13:38 34.215952 -118.545359 19 5137ft 189kts
17-Sep-21 13:39 34.248665 -118.512873 115 3823ft 160kts
17-Sep-21 13:40 34.212193 -118.499482 175 2489ft 111kts
17-Sep-21 13:41 34.185953 -118.505867 183 1495ft 88kts
17-Sep-21 13:42 34.190580 -118.488550 355 989ft 131kts
17-Sep-21 13:43 34.219560 -118.490014 0 1431ft 108kts
17-Sep-21 13:45 34.225131 -118.465643 107 1784ft 127kts
17-Sep-21 13:46 34.215553 -118.424767 83 1491ft 130kts
17-Sep-21 13:47 34.241022 -118.399463 350 1200ft 125kts
17-Sep-21 13:48 34.260209 -118.414438 328 998ft 18kts
17-Sep-21 13:49 34.260994 -118.413806 49 999ft 11kts
17-Sep-21 13:50 34.259615 -118.412629 165 994ft 9kts
17-Sep-21 13:51 34.259866 -118.412157 322 994ft 0kts
17-Sep-21 13:52 34.259866 -118.412157 322 994ft 0kts
17-Sep-21 13:53 34.259866 -118.412157 322 994ft 0kts
17-Sep-21 13:54 34.259866 -118.412157 322 994ft 0kts
17-Sep-21 13:55 34.259866 -118.412157 322 994ft 0kts
17-Sep-21 13:56 34.259866 -118.412157 322 994ft 0kts

Navigation Log

Ident Type
Flight plan parsing failed, navigation log unavailable